createdAt,value
2023-04-07T00:01:06.820Z,17.08
2023-04-07T00:03:33.720Z,16.73
2023-04-07T00:06:00.236Z,16.77
2023-04-07T00:08:27.067Z,16.20
2023-04-07T00:10:53.412Z,15.32
2023-04-07T00:13:19.737Z,16.10
2023-04-07T00:15:46.195Z,15.38
2023-04-07T00:18:12.600Z,16.10
2023-04-07T00:20:38.971Z,17.88
2023-04-07T00:23:05.307Z,17.15
2023-04-07T00:25:31.678Z,17.90
2023-04-07T00:27:57.991Z,17.80
2023-04-07T00:30:24.375Z,19.35
2023-04-07T00:32:51.634Z,17.90
2023-04-07T00:35:18.213Z,17.05
2023-04-07T00:37:44.555Z,18.00
2023-04-07T00:40:11.362Z,17.40
2023-04-07T00:42:37.722Z,16.73
2023-04-07T00:45:04.616Z,17.13
2023-04-07T00:47:31.841Z,16.17
2023-04-07T00:49:58.261Z,17.08
2023-04-07T00:52:28.865Z,17.60
2023-04-07T00:54:55.842Z,16.75
2023-04-07T00:57:22.903Z,16.52
2023-04-07T00:59:52.840Z,16.15
2023-04-07T01:02:28.836Z,16.45
2023-04-07T01:05:07.559Z,16.98
2023-04-07T01:07:57.073Z,16.70
2023-04-07T01:11:05.345Z,17.00
2023-04-07T01:13:36.141Z,16.63
2023-04-07T01:16:32.412Z,15.30
2023-04-07T01:19:12.720Z,16.42
2023-04-07T01:21:43.067Z,15.93
2023-04-07T01:24:33.476Z,15.20
2023-04-07T01:27:13.972Z,16.58
2023-04-07T01:29:47.723Z,15.02
2023-04-07T01:32:15.663Z,14.63
2023-04-07T01:34:43.429Z,14.10
2023-04-07T01:37:11.248Z,16.13
2023-04-07T01:39:38.556Z,14.45
2023-04-07T01:42:06.693Z,14.10
2023-04-07T01:44:34.152Z,16.27
2023-04-07T01:47:02.207Z,15.60
2023-04-07T01:49:30.759Z,17.98
2023-04-07T01:51:58.087Z,17.02
2023-04-07T01:54:25.806Z,16.40
2023-04-07T01:56:52.885Z,16.38
2023-04-07T01:59:19.317Z,15.77
2023-04-07T02:01:46.481Z,17.00
2023-04-07T02:04:22.021Z,17.35
2023-04-07T02:06:53.062Z,17.48
2023-04-07T02:09:27.213Z,18.45
2023-04-07T02:11:57.920Z,17.08
2023-04-07T02:14:25.552Z,15.75
2023-04-07T02:17:03.984Z,17.73
2023-04-07T02:19:30.566Z,20.60
2023-04-07T02:21:57.768Z,19.63
2023-04-07T02:24:24.197Z,23.90
2023-04-07T02:26:50.574Z,23.70
2023-04-07T02:29:17.503Z,24.20
2023-04-07T02:31:44.038Z,24.63
2023-04-07T02:34:10.525Z,22.33
2023-04-07T02:36:38.902Z,24.50
2023-04-07T02:39:06.740Z,23.85
2023-04-07T02:41:33.175Z,21.23
2023-04-07T02:43:59.783Z,21.63
2023-04-07T02:46:26.249Z,22.05
2023-04-07T02:48:52.678Z,19.92
2023-04-07T02:51:19.097Z,20.38
2023-04-07T02:53:45.515Z,20.25
2023-04-07T02:56:12.054Z,22.13
2023-04-07T02:58:38.680Z,21.55
2023-04-07T03:01:05.406Z,24.70
2023-04-07T03:03:34.027Z,25.73
2023-04-07T03:06:14.832Z,25.10
2023-04-07T03:08:58.692Z,23.08
2023-04-07T03:11:25.178Z,23.52
2023-04-07T03:13:52.275Z,23.85
2023-04-07T03:16:18.932Z,23.35
2023-04-07T03:18:58.168Z,22.83
2023-04-07T03:21:25.728Z,23.75
2023-04-07T03:23:52.777Z,22.13
2023-04-07T03:26:19.559Z,20.98
2023-04-07T03:28:46.083Z,19.42
2023-04-07T03:31:13.638Z,20.17
2023-04-07T03:33:40.082Z,21.05
2023-04-07T03:36:08.310Z,20.48
2023-04-07T03:38:35.313Z,20.25
2023-04-07T03:41:04.113Z,21.58
2023-04-07T03:43:30.553Z,20.05
2023-04-07T03:45:57.118Z,19.73
2023-04-07T03:48:24.530Z,22.70
2023-04-07T03:51:02.710Z,20.42
2023-04-07T03:53:30.685Z,20.38
2023-04-07T03:55:58.238Z,19.58
2023-04-07T03:58:46.469Z,19.73
2023-04-07T04:01:19.136Z,18.20
2023-04-07T04:03:49.566Z,18.13
2023-04-07T04:06:22.038Z,20.05
2023-04-07T04:08:49.513Z,19.35
2023-04-07T04:11:16.131Z,18.30
2023-04-07T04:13:50.749Z,19.45
2023-04-07T04:16:17.290Z,17.90
2023-04-07T04:18:44.617Z,19.50
2023-04-07T04:21:13.596Z,18.83
2023-04-07T04:23:42.575Z,19.13
2023-04-07T04:26:08.979Z,19.25
2023-04-07T04:28:38.026Z,19.10
2023-04-07T04:31:07.609Z,18.17
2023-04-07T04:33:39.203Z,20.38
2023-04-07T04:36:06.027Z,19.25
2023-04-07T04:38:33.213Z,19.55
2023-04-07T04:41:20.329Z,19.75
2023-04-07T04:43:48.552Z,20.02
2023-04-07T04:46:20.226Z,18.58
2023-04-07T04:48:47.386Z,20.33
2023-04-07T04:51:16.480Z,19.65
2023-04-07T04:53:45.864Z,20.73
2023-04-07T04:56:12.388Z,23.15
2023-04-07T04:58:46.024Z,21.55
2023-04-07T05:01:18.043Z,22.92
2023-04-07T05:03:52.897Z,21.83
2023-04-07T05:06:27.534Z,23.02
2023-04-07T05:08:57.034Z,22.35
2023-04-07T05:11:27.237Z,21.88
2023-04-07T05:13:55.982Z,23.80
2023-04-07T05:16:23.794Z,22.10
2023-04-07T05:18:50.855Z,22.30
2023-04-07T05:21:20.084Z,18.13
2023-04-07T05:23:46.558Z,22.48
2023-04-07T05:26:13.543Z,22.13
2023-04-07T05:28:40.805Z,23.23
2023-04-07T05:31:14.353Z,23.45
2023-04-07T05:33:40.900Z,21.25
2023-04-07T05:36:07.781Z,20.05
2023-04-07T05:38:34.935Z,21.20
2023-04-07T05:41:08.565Z,20.85
2023-04-07T05:43:36.468Z,22.85
2023-04-07T05:46:03.166Z,23.08
2023-04-07T05:48:30.586Z,21.45
2023-04-07T05:50:57.044Z,22.17
2023-04-07T05:53:23.590Z,21.30
2023-04-07T05:55:50.266Z,21.25
2023-04-07T05:58:39.689Z,21.73
2023-04-07T06:01:06.255Z,22.15
2023-04-07T06:03:32.959Z,20.83
2023-04-07T06:06:18.943Z,20.27
2023-04-07T06:08:46.056Z,20.73
2023-04-07T06:11:12.624Z,19.83
2023-04-07T06:13:39.048Z,21.08
2023-04-07T06:16:06.440Z,20.50
2023-04-07T06:18:32.951Z,18.83
2023-04-07T06:20:59.443Z,19.98
2023-04-07T06:23:25.892Z,22.10
2023-04-07T06:25:53.175Z,20.50
2023-04-07T06:28:19.746Z,21.15
2023-04-07T06:30:47.086Z,19.67
2023-04-07T06:33:14.816Z,21.42
2023-04-07T06:35:41.356Z,20.55
2023-04-07T06:38:08.099Z,20.23
2023-04-07T06:40:34.457Z,18.65
2023-04-07T06:43:00.885Z,19.88
2023-04-07T06:45:36.187Z,19.38
2023-04-07T06:48:02.630Z,19.25
2023-04-07T06:50:29.045Z,20.92
2023-04-07T06:52:55.480Z,19.15
2023-04-07T06:55:21.885Z,20.42
2023-04-07T06:57:48.341Z,19.58
2023-04-07T07:00:15.175Z,20.40
2023-04-07T07:02:41.656Z,20.65
2023-04-07T07:05:08.256Z,18.90
2023-04-07T07:07:34.732Z,20.48
2023-04-07T07:10:01.284Z,19.90
2023-04-07T07:12:27.710Z,20.23
2023-04-07T07:14:54.293Z,18.63
2023-04-07T07:17:20.773Z,20.70
2023-04-07T07:19:47.300Z,19.63
2023-04-07T07:22:13.744Z,21.75
2023-04-07T07:24:40.251Z,20.30
2023-04-07T07:27:06.660Z,22.27
2023-04-07T07:29:33.069Z,21.00
2023-04-07T07:31:59.471Z,21.02
2023-04-07T07:34:25.818Z,22.88
2023-04-07T07:36:52.189Z,23.02
2023-04-07T07:39:18.533Z,23.92
2023-04-07T07:41:45.220Z,21.83
2023-04-07T07:44:11.606Z,23.10
2023-04-07T07:46:37.988Z,21.60
2023-04-07T07:49:05.707Z,23.92
2023-04-07T07:51:32.117Z,21.95
2023-04-07T07:53:58.553Z,23.80
2023-04-07T07:56:24.986Z,22.30
2023-04-07T07:58:51.592Z,21.50
2023-04-07T08:01:17.964Z,22.58
2023-04-07T08:03:44.456Z,22.00
2023-04-07T08:06:11.775Z,22.90
2023-04-07T08:08:38.240Z,23.00
2023-04-07T08:11:04.651Z,22.80
2023-04-07T08:13:31.159Z,24.75
2023-04-07T08:15:57.687Z,22.77
2023-04-07T08:18:25.217Z,21.58
2023-04-07T08:20:51.624Z,21.63
2023-04-07T08:23:18.022Z,24.50
2023-04-07T08:25:44.462Z,23.98
2023-04-07T08:28:11.615Z,21.65
2023-04-07T08:30:38.093Z,24.15
2023-04-07T08:33:06.033Z,23.55
2023-04-07T08:35:32.584Z,22.67
2023-04-07T08:37:59.055Z,20.63
2023-04-07T08:40:25.731Z,23.40
2023-04-07T08:42:52.600Z,21.63
2023-04-07T08:45:19.394Z,21.95
2023-04-07T08:47:48.106Z,22.55
2023-04-07T08:50:17.961Z,21.73
2023-04-07T08:52:46.531Z,22.20
2023-04-07T08:55:13.409Z,21.83
2023-04-07T08:57:41.021Z,22.30
2023-04-07T09:00:08.136Z,20.92
2023-04-07T09:02:36.574Z,22.88
2023-04-07T09:05:05.163Z,21.52
2023-04-07T09:07:33.474Z,21.45
2023-04-07T09:10:00.156Z,23.48
2023-04-07T09:12:28.020Z,23.67
2023-04-07T09:14:55.200Z,23.10
2023-04-07T09:17:22.175Z,22.63
2023-04-07T09:19:48.899Z,21.67
2023-04-07T09:22:15.350Z,22.92
2023-04-07T09:24:42.271Z,22.95
2023-04-07T09:27:16.073Z,22.92
2023-04-07T09:29:44.744Z,21.70
2023-04-07T09:32:11.387Z,20.80
2023-04-07T09:34:41.195Z,64.18
2023-04-07T09:37:09.453Z,20.83
2023-04-07T09:39:50.569Z,18.80
2023-04-07T09:42:17.045Z,18.58
2023-04-07T09:44:44.161Z,19.38
2023-04-07T09:47:11.137Z,18.58
2023-04-07T09:49:54.612Z,17.80
2023-04-07T09:52:47.076Z,18.17
2023-04-07T09:55:14.488Z,18.80
2023-04-07T09:57:42.065Z,18.65
2023-04-07T10:00:10.277Z,17.40
2023-04-07T10:02:39.585Z,20.33
2023-04-07T10:05:06.766Z,17.02
2023-04-07T10:07:33.197Z,18.15
2023-04-07T10:09:59.589Z,17.38
2023-04-07T10:12:27.199Z,18.20
2023-04-07T10:14:55.236Z,18.00
2023-04-07T10:17:22.556Z,19.10
2023-04-07T10:19:50.827Z,17.85
2023-04-07T10:22:18.582Z,18.30
2023-04-07T10:24:56.299Z,19.60
2023-04-07T10:27:31.634Z,18.35
2023-04-07T10:30:00.182Z,18.63
2023-04-07T10:32:26.922Z,16.70
2023-04-07T10:34:54.373Z,17.85
2023-04-07T10:37:22.452Z,16.83
2023-04-07T10:39:51.180Z,18.05
2023-04-07T10:42:39.169Z,17.50
2023-04-07T10:45:06.257Z,17.40
2023-04-07T10:47:32.827Z,18.13
2023-04-07T10:50:22.337Z,18.10
2023-04-07T10:52:50.207Z,17.25
2023-04-07T10:55:29.858Z,18.08
2023-04-07T10:58:25.203Z,19.23
2023-04-07T11:01:01.129Z,19.13
2023-04-07T11:03:30.205Z,17.40
2023-04-07T11:06:08.398Z,17.70
2023-04-07T11:08:42.649Z,16.75
2023-04-07T11:11:11.489Z,19.50
2023-04-07T11:13:42.391Z,18.20
2023-04-07T11:16:09.434Z,16.30
2023-04-07T11:18:37.358Z,16.20
2023-04-07T11:21:08.034Z,16.85
2023-04-07T11:23:42.550Z,16.73
2023-04-07T11:26:11.449Z,16.00
2023-04-07T11:28:54.152Z,15.00
2023-04-07T11:31:29.093Z,15.82
2023-04-07T11:34:05.497Z,12.95
2023-04-07T11:36:34.241Z,12.60
2023-04-07T11:39:02.230Z,12.40
2023-04-07T11:41:31.275Z,14.00
2023-04-07T11:44:08.239Z,13.85
2023-04-07T11:46:35.338Z,14.27
2023-04-07T11:49:13.497Z,12.30
2023-04-07T11:51:40.831Z,14.00
2023-04-07T11:54:07.291Z,11.38
2023-04-07T11:56:47.680Z,12.60
2023-04-07T11:59:25.069Z,10.70
2023-04-07T12:01:55.349Z,10.10
2023-04-07T12:04:23.654Z,7.93
2023-04-07T12:06:50.280Z,7.75
2023-04-07T12:09:37.986Z,11.10
2023-04-07T12:12:07.117Z,10.80
2023-04-07T12:14:34.276Z,11.07
2023-04-07T12:17:03.287Z,10.13
2023-04-07T12:19:33.580Z,9.93
2023-04-07T12:22:00.597Z,10.48
2023-04-07T12:24:27.175Z,12.93
2023-04-07T12:26:53.682Z,13.60
2023-04-07T12:29:20.260Z,13.02
2023-04-07T12:31:49.429Z,11.43
2023-04-07T12:34:17.109Z,11.68
2023-04-07T12:36:44.520Z,12.75
2023-04-07T12:39:11.133Z,11.25
2023-04-07T12:41:38.784Z,11.07
2023-04-07T12:44:05.923Z,11.20
2023-04-07T12:46:32.572Z,11.13
2023-04-07T12:48:59.177Z,11.50
2023-04-07T12:51:26.193Z,11.25
2023-04-07T12:53:54.043Z,10.15
2023-04-07T12:56:22.257Z,10.27
2023-04-07T12:58:48.657Z,9.48
2023-04-07T13:01:15.182Z,9.48
2023-04-07T13:03:41.726Z,8.40
2023-04-07T13:06:08.225Z,8.75
2023-04-07T13:08:34.724Z,9.05
2023-04-07T13:11:01.283Z,10.18
2023-04-07T13:13:27.880Z,8.63
2023-04-07T13:15:54.516Z,7.90
2023-04-07T13:18:21.704Z,7.80
2023-04-07T13:21:03.591Z,7.32
2023-04-07T13:23:42.894Z,7.43
2023-04-07T13:26:10.053Z,7.38
2023-04-07T13:28:36.450Z,7.78
2023-04-07T13:31:03.018Z,7.30
2023-04-07T13:33:29.460Z,7.13
2023-04-07T13:35:55.931Z,6.93
2023-04-07T13:38:22.313Z,7.18
2023-04-07T13:40:49.529Z,7.40
2023-04-07T13:43:17.735Z,6.35
2023-04-07T13:45:44.272Z,6.50
2023-04-07T13:48:10.755Z,5.65
2023-04-07T13:50:37.412Z,7.10
2023-04-07T13:53:03.762Z,6.75
2023-04-07T13:55:30.380Z,6.03
2023-04-07T13:57:56.820Z,5.57
2023-04-07T14:00:23.238Z,6.80
2023-04-07T14:02:50.134Z,6.93
2023-04-07T14:05:16.695Z,5.25
2023-04-07T14:07:43.087Z,6.60
2023-04-07T14:10:10.776Z,6.88
2023-04-07T14:12:37.351Z,6.28
2023-04-07T14:15:04.332Z,6.43
2023-04-07T14:17:30.853Z,5.38
2023-04-07T14:19:57.288Z,5.50
2023-04-07T14:22:23.729Z,4.45
2023-04-07T14:24:50.144Z,5.50
2023-04-07T14:27:20.735Z,5.35
2023-04-07T14:29:48.231Z,5.28
2023-04-07T14:32:15.695Z,5.32
2023-04-07T14:34:42.143Z,5.38
2023-04-07T14:37:08.614Z,5.05
2023-04-07T14:39:35.456Z,5.32
2023-04-07T14:42:01.870Z,4.53
2023-04-07T14:44:29.038Z,5.60
2023-04-07T14:46:55.458Z,5.00
2023-04-07T14:49:22.246Z,4.85
2023-04-07T14:51:48.739Z,4.00
2023-04-07T14:54:15.130Z,3.42
2023-04-07T14:56:41.620Z,3.90
2023-04-07T14:59:08.040Z,3.72
2023-04-07T15:01:34.523Z,4.18
2023-04-07T15:04:01.215Z,4.25
2023-04-07T15:06:28.126Z,3.90
2023-04-07T15:08:54.583Z,3.90
2023-04-07T15:11:21.656Z,3.53
2023-04-07T15:13:48.613Z,3.13
2023-04-07T15:16:16.036Z,3.28
2023-04-07T15:18:44.624Z,3.03
2023-04-07T15:21:12.286Z,3.50
2023-04-07T15:23:39.236Z,3.47
2023-04-07T15:26:06.330Z,3.53
2023-04-07T15:28:32.832Z,4.45
2023-04-07T15:31:00.749Z,4.78
2023-04-07T15:33:27.814Z,3.85
2023-04-07T15:35:54.200Z,3.88
2023-04-07T15:38:20.612Z,3.15
2023-04-07T15:40:47.009Z,3.55
2023-04-07T15:43:13.401Z,3.72
2023-04-07T15:45:41.713Z,3.53
2023-04-07T15:48:08.696Z,4.43
2023-04-07T15:50:35.997Z,4.10
2023-04-07T15:53:04.650Z,4.85
2023-04-07T15:55:35.318Z,4.90
2023-04-07T15:58:03.450Z,4.90
2023-04-07T16:00:33.480Z,4.07
2023-04-07T16:03:02.121Z,4.50
2023-04-07T16:05:29.136Z,3.85
2023-04-07T16:07:55.657Z,3.78
2023-04-07T16:10:22.051Z,3.13
2023-04-07T16:12:48.548Z,3.45
2023-04-07T16:15:20.516Z,2.72
2023-04-07T16:17:52.549Z,2.33
2023-04-07T16:20:18.953Z,2.42
2023-04-07T16:22:47.998Z,2.80
2023-04-07T16:25:18.188Z,2.80
2023-04-07T16:27:45.379Z,2.50
2023-04-07T16:30:13.683Z,3.10
2023-04-07T16:32:43.493Z,3.13
2023-04-07T16:35:11.337Z,2.65
2023-04-07T16:37:38.174Z,3.42
2023-04-07T16:40:05.095Z,3.25
2023-04-07T16:42:31.730Z,3.22
2023-04-07T16:44:58.289Z,2.92
2023-04-07T16:47:26.167Z,3.15
2023-04-07T16:49:52.811Z,3.17
2023-04-07T16:52:20.659Z,3.15
2023-04-07T16:54:47.248Z,2.78
2023-04-07T16:57:13.761Z,2.25
2023-04-07T16:59:40.637Z,2.10
2023-04-07T17:02:12.441Z,1.60
2023-04-07T17:04:40.291Z,1.70
2023-04-07T17:07:07.125Z,1.98
2023-04-07T17:09:33.825Z,1.80
2023-04-07T17:12:01.520Z,1.90
2023-04-07T17:14:28.872Z,2.00
2023-04-07T17:16:55.953Z,2.10
2023-04-07T17:19:22.609Z,2.35
2023-04-07T17:21:49.324Z,2.63
2023-04-07T17:24:16.685Z,2.22
2023-04-07T17:26:44.192Z,2.58
2023-04-07T17:29:10.598Z,2.78
2023-04-07T17:31:37.008Z,2.90
2023-04-07T17:34:03.697Z,2.42
2023-04-07T17:36:34.077Z,2.17
2023-04-07T17:39:01.253Z,2.35
2023-04-07T17:41:28.402Z,2.05
2023-04-07T17:43:54.858Z,1.90
2023-04-07T17:46:22.876Z,1.90
2023-04-07T17:48:50.703Z,1.70
2023-04-07T17:51:17.653Z,1.80
2023-04-07T17:53:44.082Z,1.40
2023-04-07T17:56:10.677Z,1.73
2023-04-07T17:58:37.130Z,1.90
2023-04-07T18:01:04.151Z,2.40
2023-04-07T18:03:30.763Z,1.65
2023-04-07T18:05:57.277Z,2.80
2023-04-07T18:08:24.829Z,2.10
2023-04-07T18:10:51.473Z,2.08
2023-04-07T18:13:18.504Z,2.05
2023-04-07T18:15:45.102Z,2.22
2023-04-07T18:18:11.569Z,1.95
2023-04-07T18:20:37.948Z,1.90
2023-04-07T18:23:05.225Z,2.47
2023-04-07T18:25:31.596Z,3.08
2023-04-07T18:27:58.772Z,2.30
2023-04-07T18:30:25.147Z,2.28
2023-04-07T18:32:51.576Z,2.42
2023-04-07T18:35:18.028Z,1.90
2023-04-07T18:37:44.472Z,2.20
2023-04-07T18:40:11.483Z,2.30
2023-04-07T18:42:37.903Z,2.00
2023-04-07T18:45:04.619Z,2.10
2023-04-07T18:47:31.170Z,2.63
2023-04-07T18:49:58.130Z,2.28
2023-04-07T18:52:26.309Z,3.08
2023-04-07T18:54:52.805Z,3.10
2023-04-07T18:57:19.192Z,3.28
2023-04-07T18:59:45.825Z,3.22
2023-04-07T19:02:12.548Z,4.43
2023-04-07T19:04:39.101Z,4.53
2023-04-07T19:07:05.728Z,5.40
2023-04-07T19:09:33.065Z,5.20
2023-04-07T19:11:59.443Z,3.55
2023-04-07T19:14:25.925Z,3.45
2023-04-07T19:16:52.640Z,3.65
2023-04-07T19:19:19.181Z,4.03
2023-04-07T19:21:45.681Z,3.85
2023-04-07T19:24:12.044Z,3.25
2023-04-07T19:26:38.472Z,4.18
2023-04-07T19:29:04.942Z,4.82
2023-04-07T19:31:31.477Z,4.57
2023-04-07T19:33:58.473Z,4.60
2023-04-07T19:36:26.402Z,4.50
2023-04-07T19:38:52.932Z,4.70
2023-04-07T19:41:19.359Z,4.03
2023-04-07T19:43:45.783Z,9.25
2023-04-07T19:46:12.297Z,11.23
2023-04-07T19:48:39.934Z,11.45
2023-04-07T19:51:07.440Z,7.50
2023-04-07T19:53:34.096Z,6.45
2023-04-07T19:56:01.794Z,6.25
2023-04-07T19:58:28.183Z,6.47
2023-04-07T20:00:55.020Z,7.28
2023-04-07T20:03:22.026Z,7.65
2023-04-07T20:05:49.486Z,7.35
2023-04-07T20:08:16.338Z,9.25
2023-04-07T20:10:42.702Z,9.23
2023-04-07T20:13:09.556Z,11.43
2023-04-07T20:15:36.147Z,10.80
2023-04-07T20:18:03.477Z,8.75
2023-04-07T20:20:29.899Z,9.27
2023-04-07T20:22:56.310Z,9.18
2023-04-07T20:25:22.807Z,9.18
2023-04-07T20:27:49.969Z,8.93
2023-04-07T20:30:16.731Z,9.48
2023-04-07T20:32:43.784Z,9.75
2023-04-07T20:35:11.890Z,8.73
2023-04-07T20:37:38.406Z,7.70
2023-04-07T20:40:06.092Z,6.50
2023-04-07T20:42:32.577Z,6.60
2023-04-07T20:45:03.465Z,6.50
2023-04-07T20:47:31.197Z,6.57
2023-04-07T20:49:58.592Z,5.80
2023-04-07T20:52:26.606Z,5.03
2023-04-07T20:54:53.050Z,5.07
2023-04-07T20:57:19.461Z,5.20
2023-04-07T20:59:45.984Z,4.55
2023-04-07T21:02:12.587Z,4.22
2023-04-07T21:04:39.213Z,3.88
2023-04-07T21:07:05.728Z,5.07
2023-04-07T21:09:32.160Z,4.05
2023-04-07T21:11:58.679Z,4.40
2023-04-07T21:14:25.312Z,3.88
2023-04-07T21:16:51.934Z,4.28
2023-04-07T21:19:18.290Z,3.35
2023-04-07T21:21:44.699Z,4.00
2023-04-07T21:24:11.117Z,3.30
2023-04-07T21:26:37.463Z,3.20
2023-04-07T21:29:03.822Z,3.55
2023-04-07T21:31:30.240Z,3.67
2023-04-07T21:33:56.636Z,3.63
2023-04-07T21:36:23.014Z,4.38
2023-04-07T21:38:50.889Z,3.70
2023-04-07T21:41:17.824Z,4.97
2023-04-07T21:43:44.242Z,4.38
2023-04-07T21:46:10.680Z,3.97
2023-04-07T21:48:37.093Z,4.13
2023-04-07T21:51:03.709Z,4.32
2023-04-07T21:53:30.321Z,4.03
2023-04-07T21:55:56.774Z,4.10
2023-04-07T21:58:23.464Z,4.50
2023-04-07T22:00:49.970Z,4.38
2023-04-07T22:03:16.700Z,4.30
2023-04-07T22:05:43.341Z,5.32
2023-04-07T22:08:09.702Z,4.88
2023-04-07T22:10:36.335Z,4.50
2023-04-07T22:13:03.135Z,4.70
2023-04-07T22:15:29.726Z,4.40
2023-04-07T22:17:57.666Z,5.28
2023-04-07T22:20:25.684Z,4.40
2023-04-07T22:22:53.959Z,4.10
2023-04-07T22:25:20.434Z,4.13
2023-04-07T22:27:46.825Z,4.60
2023-04-07T22:30:13.276Z,4.45
2023-04-07T22:32:41.278Z,4.45
2023-04-07T22:35:08.106Z,4.05
2023-04-07T22:37:34.515Z,4.32
2023-04-07T22:40:00.977Z,4.63
2023-04-07T22:42:27.343Z,4.75
2023-04-07T22:44:53.729Z,4.90
2023-04-07T22:47:20.687Z,4.85
2023-04-07T22:49:47.126Z,5.18
2023-04-07T22:52:13.545Z,4.20
2023-04-07T22:54:39.950Z,4.55
2023-04-07T22:57:06.308Z,4.38
2023-04-07T22:59:32.765Z,5.03
2023-04-07T23:01:59.348Z,4.50
2023-04-07T23:04:25.929Z,6.03
2023-04-07T23:06:53.023Z,5.25
2023-04-07T23:09:19.414Z,4.70
2023-04-07T23:11:47.185Z,4.22
2023-04-07T23:14:13.949Z,4.57
2023-04-07T23:16:40.670Z,4.57
2023-04-07T23:19:11.212Z,4.45
2023-04-07T23:21:39.522Z,5.03
2023-04-07T23:24:05.978Z,4.50
2023-04-07T23:26:32.574Z,4.70
2023-04-07T23:28:59.000Z,4.40
2023-04-07T23:31:25.509Z,4.28
2023-04-07T23:33:52.004Z,4.88
2023-04-07T23:36:18.439Z,5.10
2023-04-07T23:38:44.892Z,4.70
2023-04-07T23:41:11.269Z,4.22
2023-04-07T23:43:37.663Z,5.03
2023-04-07T23:46:04.114Z,3.95
2023-04-07T23:48:31.262Z,5.13
2023-04-07T23:50:59.812Z,5.75
2023-04-07T23:53:26.230Z,4.55
2023-04-07T23:55:52.676Z,4.30
2023-04-07T23:58:19.044Z,4.75
